Airfield :
LOGIN :

Register | Disclaimer

   EN    FR    IT 

 










Legend :    VFR   Marginal VFR   IFR   Intensive IFR   Very Intensive IFR
Visi :
Ceiling :
>= 8 km
>= 3000ft
5 to 8 km
1000 to 3000 ft
1500m to 5 km
500 to 1000 ft
800 to 1500m
200 to 500 ft
< 800m
< 200 ft
Symbols :   Thunderstorms  Fog  Heavy snow  Heavy precipitations  Wind > 20 kt
SIGMETs :     Misc.  Thunderstorms  Icing  Turbulence  Mountain Waves  Volcanic Ashes







- Airport Elevation : 188 ft
- IATA code : ORB


ESOE - Örebro

CURRENT METAR :
  • 181650Z 23009KT 7000 FEW014 BKN016 08/05 Q1009

EXPIRED METARs :
  • 181620Z 24007KT 200V260 8000 OVC016 08/05 Q1009
  • 181550Z 22005KT 9000 OVC017 08/05 Q1009
  • 181520Z 22006KT 8000 OVC017 08/06 Q1009
  • 181450Z 21005KT 8000 BR OVC018 08/06 Q1009
  • 181420Z 20006KT 9000 BR OVC021 07/05 Q1010

TAF TAF ESOE
Valid from the 18 at 15:00 until the 19 at 00:00 UTC


181430Z 1815/1824 20008KT 9999 BKN020
No reported NOTAMs for that airfield.



MET'MAP, your aeronautical weather chart ! - Copyright ORBIFLY December 2007 - Disclaimer

ORBIFLY MET'MAP TEAM :

Programming & Development : Alexandra Zaïnal
Concept & Development : Baudouin d'Aumeries
Co-Development & Prog : Marc-Olivier Méhu
Technical & hardware support : Manuel Goepfert

Contact : metmap@orbifly.com




SOURCES & CREDITS :

   NOAA